Weather observations for the past three days for
Hot Springs / Ingalls
Metric (Imperial)
Date Time (edt) Wind (kph) Vis. (km) Weather Sky Cond. Temperature (ºC) Relative Humidity Wind Chill (°C) Heat Index (°C) Pressure Precipitation (cm)
Air Dwpt 6 hour altimeter (cm) sea level (mb) 1 hr 3 hr 6 hr
Max. Min.
06 01:35 S 20 G 33 16.09 Overcast OVC065 15.1 5.7 54% 76.02 0.0
06 01:15 S 20 G 43 16.09 Overcast OVC065 15.1 5.5 53% 76.02 0.0
06 00:55 S 15 G 39 16.09 Overcast OVC065 15.1 5.1 51% 76.05 0.0
06 00:35 S 19 G 35 16.09 Mostly Cloudy BKN065 15 5 51% 76.05 0.0
06 00:15 S 22 G 33 16.09 Fair CLR 14.7 4.6 51% 76.05 0.0
05 23:55 S 24 G 43 16.09 Partly Cloudy SCT070 14.9 4.5 50% 76.05 0.0
05 23:35 S 26 G 39 16.09 Partly Cloudy SCT070 15.1 4.4 49% 76.05 0.0
05 23:15 SW 28 G 37 16.09 Mostly Cloudy BKN070 15.2 4.2 48% 76.05 0.0
05 22:55 S 20 G 37 16.09 Partly Cloudy SCT110 15.2 4.1 48% 76.07 0.0
05 22:35 S 24 G 35 16.09 Overcast SCT090 OVC110 15.6 4 46% 76.1 0.0
05 22:15 S 20 G 37 16.09 Overcast BKN090 OVC110 15.7 3.8 45% 76.1 0.0
05 21:55 S 19 G 30 16.09 Mostly Cloudy BKN100 BKN120 15.8 3.8 45% 76.1 0.0
05 21:35 S 22 G 33 16.09 Partly Cloudy SCT110 15.7 3.6 45% 76.1 0.0
05 21:15 S 19 G 35 16.09 Fair CLR 16 3.2 43% 76.1 0.0
05 20:55 S 20 G 37 16.09 Fair CLR 16.2 3 41% 76.07 0.0
05 20:35 S 19 G 30 16.09 Fair CLR 16.1 3 42% 76.07 0.0
05 20:15 S 17 16.09 Fair CLR 16.2 4 44% 76.1 0.0
05 19:55 S 17 G 26 16.09 Fair CLR 16.6 3.3 21.4 16.6 41% 76.05 0.0
05 19:35 S 13 16.09 Fair CLR 17.2 1.8 36% 76.05 0.0
05 19:15 S 20 G 30 16.09 Fair CLR 18.1 1.6 33% 76.05 0.0
05 18:55 S 19 G 41 16.09 Fair CLR 18.6 1.5 32% 76.05 0.0
05 18:35 S 22 G 28 16.09 Fair CLR 19.1 1.1 30% 76.05 0.0
05 18:15 S 28 G 39 16.09 Partly Cloudy SCT065 19.6 2.2 32% 76.07 0.0
05 17:55 S 17 G 26 16.09 Partly Cloudy SCT065 19.1 2.7 34% 76.07 0.0
05 17:35 S 15 16.09 Partly Cloudy SCT070 19.2 2.9 34% 76.07 0.0
05 17:15 S 15 16.09 Overcast SCT055 OVC070 19 4.5 39% 76.07 0.0
05 16:55 S 17 G 26 16.09 Mostly Cloudy SCT055 BKN070 19.6 4.9 38% 76.07 0.0
05 16:35 SW 19 G 39 16.09 Partly Cloudy SCT080 20.5 0.9 27% 76.07 0.0
05 16:15 SW 26 G 39 16.09 Partly Cloudy SCT080 20.9 0.3 25% 76.07 0.0
05 15:55 S 24 G 43 16.09 Fair CLR 21.1 0.4 25% 76.1 0.0
05 15:35 S 26 G 37 16.09 Partly Cloudy SCT070 20.9 1.1 27% 76.1 0.0
05 15:15 S 24 G 43 16.09 Partly Cloudy SCT070 20.7 1.5 28% 76.12 0.0
05 14:55 SW 19 G 37 11.27 Partly Cloudy SCT070 20.4 2.8 31% 76.15 0.0
05 14:35 S 22 G 39 16.09 Partly Cloudy SCT070 20.5 2.7 31% 76.15 0.0
05 14:15 SW 24 G 33 16.09 Fair CLR 20.3 3.7 34% 76.15 0.0
05 13:55 SW 22 G 35 11.27 Fair CLR 20.1 4 20.1 13.4 35% 76.17 0.0
05 13:35 SW 22 G 30 8.05 Fair with Haze CLR 19.6 4.1 36% 76.17 0.0
05 13:15 SW 30 G 41 8.05 Fair with Haze CLR 19 3.8 37% 76.2 0.0
05 12:55 SW 24 G 35 4.83 Fair with Haze CLR 18.4 3.9 38% 76.23 0.0
05 12:35 SW 19 G 39 11.27 Partly Cloudy SCT049 18.6 4.4 39% 76.23 0.0
05 12:15 SW 26 G 35 8.05 Fair with Haze CLR 18.4 5 41% 76.23 0.0
05 11:55 W 28 G 39 16.09 Partly Cloudy SCT044 18 5 43% 76.25 0.0
05 11:35 W 22 G 31 11.27 Partly Cloudy SCT042 SCT049 17.7 5.8 46% 76.28 0.0
05 11:15 W 13 G 31 11.27 Partly Cloudy SCT040 16.9 5.6 48% 76.25 0.0
05 10:55 W 22 G 37 11.27 Partly Cloudy SCT038 16.2 5.3 49% 76.25 0.0
05 10:35 W 26 G 41 11.27 Partly Cloudy SCT038 15.9 5.8 51% 76.25 0.0
05 10:15 W 33 G 44 11.27 Fair and Breezy CLR 15.7 6 53% 76.25 0.0
05 09:55 W 26 G 39 6.44 Fair with Haze CLR 15.5 6 53% 76.23 0.0
05 09:35 W 33 G 43 11.27 Fair and Breezy CLR 15 5.9 55% 76.23 0.0
05 09:15 W 31 G 44 11.27 Fair CLR 14.7 6 56% 76.23 0.0
05 08:55 W 28 G 35 11.27 Fair CLR 14.5 6 57% 76.23 0.0
05 08:35 W 28 G 41 11.27 Fair CLR 14.1 5.9 58% 76.2 0.0
05 08:15 W 26 G 39 16.09 Fair CLR 13.7 5.7 59% 76.2 0.0
05 07:55 W 33 G 44 8.05 Fair with Haze and Breezy CLR 13.4 5.7 13.4 12.5 60% 76.2 0.0
05 07:35 W 33 G 43 11.27 Fair and Breezy CLR 13 5.7 61% 76.17 0.0
05 07:15 W 30 G 37 11.27 Fair CLR 12.5 5.4 62% 76.17 0.0
05 06:55 W 26 G 35 11.27 Fair CLR 12.5 5.2 61% 76.17 0.0
05 06:35 W 30 G 43 11.27 Fair CLR 12.6 5 60% 76.15 0.0
05 06:15 W 31 G 41 11.27 Fair CLR 12.5 4.9 60% 76.15 0.0
05 05:55 W 30 G 41 11.27 Fair CLR 12.6 4.6 58% 76.12 0.0
05 05:35 W 31 G 44 11.27 Fair CLR 12.7 4.3 57% 76.12 0.0
05 05:15 W 33 G 43 11.27 Fair and Breezy CLR 12.9 3.9 55% 76.12 0.0
05 04:55 W 31 G 43 11.27 Fair CLR 13 4 55% 76.15 0.0
05 04:35 SW 35 G 43 16.09 Fair and Breezy CLR 12.8 3.8 55% 76.15 0.0
05 04:15 SW 26 11.27 Fair CLR 12.5 3.6 55% 76.12 0.0
05 03:55 SW 26 11.27 Fair CLR 12.6 3.5 54% 76.12 0.0
05 03:35 SW 24 G 31 11.27 Fair CLR 12.6 3.5 54% 76.1 0.0
05 03:15 SW 20 G 30 16.09 Fair CLR 12.9 3.3 52% 76.1 0.0
05 02:55 SW 24 G 33 11.27 Fair CLR 13 3.3 52% 76.1 0.0
05 02:35 SW 24 G 35 16.09 Fair CLR 13.1 3.4 52% 76.1 0.0
05 02:15 SW 26 11.27 Fair CLR 13.1 3.5 52% 76.1 0.0
05 01:55 SW 30 G 39 11.27 Fair CLR 13.1 3.5 15.5 13.1 52% 76.1 0.0
05 01:35 SW 28 G 37 8.05 Fair with Haze CLR 13.5 3.7 52% 76.07 0.0
05 01:15 SW 28 G 39 11.27 Fair CLR 13.5 3.8 52% 76.1 0.0
05 00:55 SW 28 G 43 16.09 Fair CLR 13.5 4.2 54% 76.1 0.0
05 00:35 SW 28 G 37 11.27 Fair CLR 13.6 4.3 54% 76.1 0.0
05 00:15 SW 28 G 39 11.27 Fair CLR 13.8 4.3 53% 76.1 0.0
04 23:55 SW 22 G 43 11.27 Fair CLR 14.1 4.5 53% 76.1 0.0
04 23:35 SW 30 G 39 11.27 Fair CLR 14.2 4.9 54% 76.1 0.0
04 23:15 SW 22 G 35 16.09 Fair CLR 14.6 4.9 52% 76.1 0.0
04 22:55 SW 15 11.27 Fair CLR 14.2 5 54% 76.12 0.0
04 22:35 SW 17 11.27 Fair CLR 14.7 5 52% 76.1 0.0
04 22:15 SW 17 11.27 Fair CLR 15 4.3 49% 76.12 0.0
04 21:55 SW 17 11.27 Fair CLR 15.3 4 47% 76.12 0.0
04 21:35 SW 17 11.27 Fair CLR 15.1 4.8 50% 76.12 0.0
04 20:55 S 13 11.27 Fair CLR 14.5 5.2 54% 76.1 0.0
04 20:35 S 11 11.27 Fair CLR 14.4 4.9 53% 76.1 0.0
04 19:55 S 15 11.27 Fair CLR 15.3 5.1 18.2 10.8 51% 76.07 0.0 0.05
04 19:35 SW 15 11.27 Fair CLR 15 5.8 54% 76.05 0.0
04 19:15 SW 13 11.27 Fair CLR 14 7 63% 76.05 0.0
04 18:55 W 13 11.27 Partly Cloudy SCT060 14.6 6.6 59% 76.05 0.0
04 18:35 W 19 G 31 11.27 Overcast BKN060 OVC070 14.1 7.1 63% 76.05 0.0
04 18:15 W 24 G 31 11.27 Overcast BKN060 OVC070 13.2 6.8 65% 76.05 0.0
04 17:55 W 24 G 37 11.27 Overcast SCT018 BKN070 OVC090 13 7.3 69% 76.05 0.0 0.05
04 17:35 W 17 G 41 11.27 Light Rain SCT018 SCT039 OVC050 10.8 7.7 81% 76.02 0.0 0.05
04 17:15 W 46 G 69 11.27 Thunderstorm Light Rain in Vicinity and Windy BKN050 BKN070 OVC080 14.7 6.2 57% 76.07 0.0
04 16:55 SW 30 G 43 11.27 Mostly Cloudy SCT055 BKN070 BKN080 17.5 4.9 44% 76.05 0.0
04 16:35 SW 30 G 41 11.27 Partly Cloudy SCT055 SCT065 17.7 4.7 42% 76.05 0.0
04 16:15 SW 31 G 37 8.05 Mostly Cloudy with Haze SCT048 SCT055 BKN065 17 4.4 43% 76.05 0.0
04 15:55 W 28 G 33 8.05 Partly Cloudy with Haze SCT046 SCT050 SCT080 17.8 5.1 43% 76.05 0.0
04 15:35 SW 30 G 39 6.44 Partly Cloudy with Haze SCT044 17.5 5.1 44% 76.05 0.0
04 15:15 W 22 G 35 8.05 Mostly Cloudy with Haze BKN046 BKN050 17.3 5.2 45% 76.07 0.0
04 14:55 SW 19 G 37 8.05 Overcast with Haze BKN044 OVC050 15.9 4.6 47% 76.1 0.0
04 14:35 S 15 G 30 11.27 Mostly Cloudy SCT044 BKN050 BKN060 16.8 4.7 45% 76.1 0.0
04 14:15 SW 24 G 39 16.09 Mostly Cloudy BKN046 BKN060 15.6 4.6 48% 76.12 0.0
04 13:55 W 26 G 31 16.09 Partly Cloudy SCT045 SCT060 16.3 4.6 16.4 7.8 46% 76.15 0.0
04 13:35 SW 30 G 39 16.09 Overcast SCT049 OVC060 15.3 4.6 49% 76.15 0.0
04 13:15 W 17 G 33 16.09 Mostly Cloudy SCT039 BKN060 BKN095 15 4.1 48% 76.17 0.0
04 12:55 W 22 G 31 16.09 Mostly Cloudy SCT046 SCT050 BKN090 15 4.5 50% 76.17 0.0
04 12:35 W 17 G 28 16.09 Partly Cloudy SCT050 13 3.6 53% 76.17 0.0
04 12:15 W 15 16.09 Fair CLR 12.3 3.1 54% 76.2 0.0
04 11:55 W 15 G 30 16.09 Fair CLR 11.9 2.8 54% 76.2 0.0
04 11:35 W 24 16.09 Fair CLR 11.8 2.3 52% 76.2 0.0
04 11:15 W 26 16.09 Fair CLR 10.8 1.7 54% 76.2 0.0
04 10:55 W 20 G 37 16.09 Fair CLR 11.3 1.8 52% 76.23 0.0
04 10:35 W 26 16.09 Fair CLR 10.9 1.4 52% 76.23 0.0
04 10:15 W 22 16.09 Partly Cloudy SCT065 11 1.5 52% 76.23 0.0
04 09:55 W 22 G 30 16.09 Fair CLR 10.7 1.1 52% 76.2 0.0
04 09:35 SW 22 16.09 Fair CLR 10.4 0.7 51% 76.2 0.0
04 09:15 W 17 16.09 Fair CLR 9.6 0.4 53% 7 76.2 0.0
04 08:55 W 15 16.09 Fair CLR 9.3 0.2 53% 7 76.2 0.0
04 08:35 W 19 16.09 Fair CLR 8.7 0 55% 6 76.17 0.0
04 08:15 SW 19 16.09 Fair CLR 8.3 -0.1 56% 6 76.17 0.0
04 07:55 SW 20 16.09 Fair CLR 7.8 -0.6 7.8 4.4 56% 5 76.17 0.0
04 07:35 SW 19 16.09 Fair CLR 7.3 -0.9 56% 4 76.17 0.0
04 07:15 SW 20 16.09 Fair CLR 6.8 -1.5 56% 4 76.17 0.0
04 06:55 SW 22 16.09 Fair CLR 6.5 -2 55% 3 76.17 0.0
04 06:35 SW 22 16.09 Fair CLR 6.3 -2.3 54% 3 76.15 0.0
04 06:15 SW 19 16.09 Fair CLR 6 -3 53% 3 76.17 0.0
04 05:55 SW 19 16.09 Partly Cloudy SCT050 5.2 -2.6 57% 2 76.15 0.0
04 05:35 W 13 16.09 Partly Cloudy SCT050 SCT070 SCT080 5.1 -0.5 67% 3 76.15 0.0
04 05:15 W 13 16.09 Mostly Cloudy SCT070 BKN080 5.6 -0.3 66% 3 76.17 0.0
04 04:55 W 11 16.09 Overcast BKN080 OVC090 6.5 -0.5 61% 5 76.17 0.0
04 04:35 W 7 16.09 Overcast OVC090 6.1 0.1 66% 5 76.17 0.0
04 04:15 W 11 16.09 Overcast SCT070 OVC100 6.2 0 65% 4 76.17 0.0
04 03:55 W 17 16.09 Overcast BKN070 OVC100 6.1 -0.1 65% 3 76.17 0.0
04 03:35 W 20 G 28 16.09 Overcast OVC070 6.1 -0.1 65% 3 76.17 0.0
04 03:15 W 20 G 33 16.09 Overcast SCT036 SCT050 OVC070 5.7 -0.2 66% 2 76.17 0.0
04 02:55 W 20 16.09 Overcast OVC038 5.5 -1.3 62% 2 76.17 0.0
04 02:35 W 22 16.09 Overcast BKN040 OVC050 5.7 -1.6 60% 2 76.2 0.0
04 02:15 W 28 G 44 16.09 Rain SCT049 OVC060 7.4 -4 45% 4 76.2 0.0
04 01:55 W 20 16.09 Overcast OVC060 7.8 -5.1 8.9 6 40% 5 76.2 0.0
04 01:35 W 20 16.09 Overcast SCT042 OVC070 7.9 -5.1 40% 5 76.2 0.0
04 01:15 W 17 16.09 Overcast BKN070 OVC090 7.4 -5.1 41% 5 76.23 0.0
04 00:55 W 17 16.09 Overcast SCT060 BKN080 OVC090 7.5 -5.1 41% 5 76.2 0.0
04 00:35 W 13 16.09 Overcast BKN060 OVC080 7.5 -5.1 41% 5 76.2 0.0
04 00:15 W 13 16.09 Overcast BKN070 OVC080 7.4 -5.1 41% 5 76.2 0.0
03 23:55 W 11 16.09 Overcast SCT070 OVC080 7.2 -5 42% 5 76.2 0.0
03 23:35 W 11 16.09 Overcast OVC070 7.3 -5.1 41% 5 76.2 0.0
03 23:15 W 9 16.09 Mostly Cloudy BKN070 6.3 -5 45% 5 76.2 0.0
03 22:55 SW 7 16.09 Overcast BKN070 BKN080 OVC100 7.1 -5.6 40% 6 76.2 0.0
03 22:35 W 11 16.09 Overcast OVC100 7.6 -6 38% 6 76.23 0.0
03 22:15 W 9 16.09 Overcast SCT080 OVC100 7.9 -6.1 37% 7 76.2 0.0
03 21:55 W 11 16.09 Overcast SCT080 OVC090 8.5 -6.3 35% 7 76.2 0.0
03 21:35 W 15 16.09 Overcast OVC095 8.5 -6.4 35% 6 76.17 0.0
03 21:15 W 15 16.09 Mostly Cloudy BKN095 8.5 -6.5 34% 6 76.17 0.0
03 20:55 W 15 16.09 Fair CLR 8.1 -6.9 34% 6 76.15 0.0
03 20:35 W 11 16.09 Fair CLR 8 -7 34% 6 76.15 0.0
03 20:15 W 15 16.09 Fair CLR 8.2 -7.1 33% 6 76.15 0.0
03 19:55 W 17 16.09 Fair CLR 9 -7.6 11.2 8 30% 7 76.15 0.0
03 19:35 W 17 16.09 Fair CLR 9.5 -7.6 29% 7 76.15 0.0
03 19:15 W 15 16.09 Fair CLR 10 -6.7 30% 8 76.15 0.0
03 18:55 W 17 G 30 16.09 Fair CLR 10.1 -7.3 29% 76.15 0.0
03 18:35 W 13 16.09 Fair CLR 10.5 -7.5 28% 76.15 0.0
03 18:15 W 20 G 30 16.09 Fair CLR 10.5 -7.3 28% 76.15 0.0
03 17:55 W 22 G 33 16.09 Fair CLR 10.6 -7.4 28% 76.15 0.0
03 17:35 W 17 G 33 16.09 Fair CLR 10.6 -7.3 28% 76.15 0.0
03 17:15 W 22 G 30 16.09 Fair CLR 11.2 -7 27% 76.15 0.0
03 16:55 W 24 G 30 16.09 Fair CLR 10.6 -7.3 28% 76.15 0.0
03 16:35 W 19 G 33 16.09 Fair CLR 10.6 -7.9 27% 76.15 0.0
03 16:15 W 15 G 35 16.09 Fair CLR 10.5 -7.9 27% 76.17 0.0
03 15:55 W 22 G 37 16.09 Fair CLR 10.6 -7.6 27% 76.2 0.0
03 15:35 W 13 G 37 16.09 Fair CLR 9.9 -7.3 29% 8 76.2 0.0
03 14:55 W 26 G 39 16.09 Fair CLR 9.9 -6.7 31% 7 76.23 0.0
03 14:35 W 20 G 30 16.09 Fair CLR 8.9 -7.4 31% 6 76.25 0.0
03 14:15 NW 13 G 28 16.09 Fair CLR 8.4 -7.2 33% 7 76.28 0.0
03 13:55 W 15 G 33 16.09 Fair CLR 7.8 -7.1 8.3 -0.6 34% 6 76.28 0.0
03 13:35 W 9 16.09 Fair CLR 7.8 -6.7 35% 6 76.28 0.0
03 13:15 W 22 16.09 Fair CLR 8 -6.1 37% 5 76.28 0.0
03 12:55 W 17 G 31 16.09 Fair CLR 6.9 -6.6 38% 4 76.28 0.0
03 12:35 SW 11 16.09 Fair CLR 6.2 -6.8 39% 4 76.28 0.0
03 12:15 NW 13 G 26 16.09 Fair CLR 6.8 -6 40% 5 76.3 0.0
03 11:55 N 19 G 28 16.09 Fair CLR 5.6 -7 40% 2 76.3 0.0
03 11:35 W 19 G 35 16.09 Fair CLR 5.3 -7 41% 2 76.3 0.0
03 11:15 W 13 G 28 16.09 Fair CLR 4.6 -6.9 43% 2 76.3 0.0
03 10:55 NW 19 G 30 16.09 Fair CLR 3.7 -6.4 48% -0 76.3 0.0
03 10:35 W 13 G 30 16.09 Fair CLR 3 -6.8 49% 0 76.3 0.0
03 10:15 NW 13 G 30 16.09 Fair CLR 2.9 -6.5 50% -0 76.28 0.0
03 09:55 NW 19 G 26 16.09 Partly Cloudy SCT029 2.2 -6.1 55% -2 76.28 0.0
03 09:35 NW 19 G 30 16.09 Partly Cloudy SCT027 1.3 -5.8 60% -3 76.28 0.0
03 09:15 NW 19 G 30 16.09 Partly Cloudy SCT027 0.8 -5 66% -4 76.25 0.0
03 08:55 NW 15 16.09 Fair CLR 0.3 -4.8 69% -4 76.25 0.0
03 08:35 W 17 G 26 16.09 Fair CLR 0 -4.6 72% -4 76.23 0.0
03 08:15 W 17 G 26 16.09 Fair CLR -0.2 -4.8 71% -5 76.2 0.0
03 07:55 W 17 G 26 16.09 Fair CLR -0.6 -5 1.2 -1.5 72% -5 76.17 0.0
03 07:35 NW 17 16.09 Fair CLR -1 -5.2 73% -6 76.17 0.0
03 07:15 W 17 G 31 16.09 Fair CLR -1.1 -5.3 73% -6 76.15 0.0
03 06:55 W 19 G 33 16.09 Fair CLR -1.4 -5.4 75% -6 76.12 0.0
03 06:35 W 20 G 30 16.09 Fair CLR -1.5 -5.3 76% -7 76.1 0.0
03 06:15 W 24 G 37 16.09 Fair CLR -1.5 -5.5 74% -7 76.07 0.0
03 05:55 W 24 G 37 16.09 Fair CLR -1.1 -5.6 72% -7 76.05 0.0
03 05:35 NW 22 G 37 16.09 Fair CLR -1 -5.8 70% -6 76.05 0.0
03 05:15 NW 20 G 35 16.09 Fair CLR -0.7 -5.8 69% -6 76.02 0.0
03 04:55 NW 28 G 37 16.09 Fair CLR -0.6 -5.8 68% -7 76.02 0.0
03 04:35 NW 24 G 33 16.09 Fair CLR -0.3 -5.7 67% -6 76.02 0.0
03 04:15 W 20 G 33 16.09 Partly Cloudy SCT023 SCT029 SCT044 -0.3 -5.1 70% -5 76.02 0.0
03 03:55 W 17 16.09 Mostly Cloudy SCT026 SCT032 BKN044 0 -4.3 73% -4 76 0.0
03 03:35 W 17 G 28 16.09 Mostly Cloudy SCT027 SCT032 BKN048 0 -4.5 72% -4 76 0.0
03 03:15 NW 19 G 30 16.09 Overcast SCT028 SCT032 OVC048 0.3 -4.4 71% -4 76 0.0
03 02:55 NW 19 G 33 16.09 Overcast SCT030 SCT036 OVC048 0.4 -4.2 72% -4 76 0.0
03 02:35 NW 17 G 31 16.09 Overcast OVC048 0.8 -4.4 69% -3 76 0.0
03 02:15 NW 22 G 31 16.09 Overcast OVC046 1.1 -4.6 66% -4 76 0.0
03 01:55 NW 22 G 39 16.09 Mostly Cloudy SCT044 BKN049 1.2 -4.3 4.4 1 67% -4 76 0.0
Date Time (edt) Wind (kph) Vis. (km) Weather Sky Cond. Air Dwpt Max. Min. Relative Humidity Wind Chill (°C) Heat Index (°C) altimeter (cm) sea level (mb) 1 hr 3 hr 6 hr
6 hour
Temperature (ºC) Pressure Precipitation (cm)